This demonstration page uses our WeatherBlox Daily Observations layout. Learn more.

Hourly Observations for May 25, 2018

Temp ( °F °C ) Dew Point ( °F °C ) Humidity (%) Winds ( mph kmh ) Pressure ( in mb ) Visibility ( mi km ) Precip ( " mm )
12:54 am 00:54 Mostly Cloudy 70 21.1 62 16.7 76 76 S 7 11 29.9 1013 10 16.0934 0 0
1:54 am 01:54 Partly Cloudy 70 21.1 62 16.7 76 76 S 10 17 29.86 1011 10 16.0934 0 0
2:54 am 02:54 Clear 68 20 62 16.7 81 81 S 9 15 29.84 1011 10 16.0934 0 0
3:54 am 03:54 Clear 68 20 63 17.2 84 84 S 10 17 29.83 1010 10 16.0934 0 0
4:54 am 04:54 Clear 65 18.3 62 16.7 90 90 S 7 11 29.83 1010 10 16.0934 0 0
5:54 am 05:54 Clear 66 18.9 62 16.7 87 87 Calm 29.83 1010 10 16.0934 0 0
6:54 am 06:54 Sunny 65 18.3 62 16.7 90 90 SSE 3 6 29.84 1011 10 16.0934 0 0
7:54 am 07:54 Sunny 69 20.6 63 17.2 81 81 Calm 29.85 1011 10 16.0934 0 0
8:54 am 08:54 Sunny 73 22.8 63 17.2 71 71 SW 3 6 29.85 1011 10 16.0934 0 0
9:54 am 09:54 Sunny 81 27.2 59 15 47 47 W 10 17 29.85 1011 10 16.0934 0 0
10:54 am 10:54 Sunny 85 29.4 57 13.9 39 39 W 9 15 29.84 1010 10 16.0934 0 0
11:54 am 11:54 Sunny 88 31.1 58 14.4 36 36 WSW 10 17 29.82 1010 10 16.0934 0 0
12:54 pm 12:54 Sunny 89 31.7 58 14.4 35 35 SW 12 19 29.8 1009 10 16.0934 0 0
1:54 pm 13:54 Sunny 91 32.8 56 13.3 31 31 SSW 8 13 29.78 1008 10 16.0934 0 0
2:54 pm 14:54 Sunny 94 34.4 53 11.7 25 25 SW 15 24 29.76 1008 10 16.0934 0 0
3:54 pm 15:54 Sunny 95 35 53 11.7 24 24 SW 13 20 29.73 1007 10 16.0934 0 0
4:54 pm 16:54 Sunny 96 35.6 53 11.7 23 23 WSW 8 13 29.71 1006 10 16.0934 0 0
5:54 pm 17:54 Sunny 96 35.6 51 10.6 22 22 W 13 20 29.7 1006 10 16.0934 0 0
6:54 pm 18:54 Sunny 95 35 51 10.6 23 23 W 8 13 29.7 1006 10 16.0934 0 0
7:54 pm 19:54 Sunny 93 33.9 52 11.1 25 25 W 6 9 29.69 1005 10 16.0934 0 0
8:54 pm 20:54 Clear 84 28.9 56 13.3 38 38 N 6 9 29.7 1006 10 16.0934 0 0
9:54 pm 21:54 Mostly Clear 79 26.1 58 14.4 49 49 Calm 29.71 1006 10 16.0934 0 0
10:54 pm 22:54 Clear 81 27.2 57 13.9 44 44 WSW 5 7 29.73 1007 10 16.0934 0 0
11:54 pm 23:54 Clear 75 23.9 57 13.9 54 54 Calm 29.73 1007 10 16.0934 0 0

Powered by AerisWeather